Time;durP1;ratioP1;P1;durP2;ratioP2;P2;SDS_P1;SDS_P2;PMS_P1;PMS_P2;Temp;Humidity;BMP_temperature;BMP_pressure;BME280_temperature;BME280_humidity;BME280_pressure;Samples;Min_cycle;Max_cycle;Signal;HPM_P1;HPM_P2
2024/01/25 05:21:28;;;;;;;11.00;1.80;;;;;;;5.53;91.59;98818.75;264013;1297;545505;-91
2024/01/25 05:27:30;;;;;;;7.90;1.80;;;;;;;5.44;92.19;98820.92;268765;1279;22655;-91
2024/01/25 05:33:33;;;;;;;14.10;3.00;;;;;;;5.42;92.58;98815.56;269213;1270;130216;-90
2024/01/25 05:39:35;;;;;;;11.40;2.20;;;;;;;5.41;92.91;98813.05;268783;1276;22298;-92
2024/01/25 05:45:43;;;;;;;7.50;2.00;;;;;;;5.45;92.95;98817.07;272138;1266;22446;-93
2024/01/25 05:51:50;;;;;;;10.10;2.20;;;;;;;5.50;92.81;98815.73;272613;1267;22336;-92
2024/01/25 05:58:03;;;;;;;9.40;2.40;;;;;;;5.53;92.81;98815.80;273531;1266;22344;-91
2024/01/25 06:04:05;;;;;;;7.70;2.10;;;;;;;5.56;92.99;98813.73;273698;1266;22464;-91
2024/01/25 06:10:10;;;;;;;11.30;2.50;;;;;;;5.52;93.74;98826.24;272747;1266;22532;-91
2024/01/25 06:16:29;;;;;;;13.50;2.30;;;;;;;5.49;94.28;98810.19;270811;1266;22522;-91
2024/01/25 06:22:33;;;;;;;15.20;2.60;;;;;;;5.52;94.13;98803.52;271283;1267;23266;-91
2024/01/25 06:28:39;;;;;;;15.30;3.30;;;;;;;5.57;94.21;98805.05;271827;1266;22479;-90
2024/01/25 06:34:44;;;;;;;11.80;2.40;;;;;;;5.48;95.15;98813.79;274122;1266;22419;-89
2024/01/25 06:40:47;;;;;;;13.70;2.80;;;;;;;5.36;95.85;98818.20;271521;1266;22414;-89
2024/01/25 06:46:49;;;;;;;10.60;3.10;;;;;;;5.32;96.49;98830.17;273474;1269;22918;-90
2024/01/25 06:52:55;;;;;;;18.30;3.40;;;;;;;5.23;97.53;98830.91;272628;1266;22557;-91
2024/01/25 06:58:57;;;;;;;15.70;3.60;;;;;;;5.10;98.65;98826.96;270804;1266;22565;-89
2024/01/25 07:05:04;;;;;;;;;;;;;;;4.98;99.54;98829.39;270705;1266;22709;-90
2024/01/25 07:11:06;;;;;;;16.50;3.70;;;;;;;4.87;100.00;98827.34;270710;1267;22290;-89
2024/01/25 07:17:08;;;;;;;14.80;3.80;;;;;;;4.78;100.00;98823.67;271756;1266;22568;-90
2024/01/25 07:23:10;;;;;;;13.70;3.70;;;;;;;4.74;100.00;98832.31;273521;1267;22224;-88
2024/01/25 07:29:14;;;;;;;16.40;4.20;;;;;;;4.78;100.00;98835.45;274047;1266;22512;-90
2024/01/25 07:35:26;;;;;;;13.50;3.90;;;;;;;4.84;100.00;98834.69;274135;1266;22992;-91
2024/01/25 07:41:31;;;;;;;11.50;3.60;;;;;;;4.87;100.00;98847.19;271763;1266;24473;-91
2024/01/25 07:47:40;;;;;;;18.70;3.70;;;;;;;4.87;100.00;98841.38;270293;1266;22563;-90
2024/01/25 07:53:46;;;;;;;17.90;3.20;;;;;;;4.88;100.00;98845.04;270085;1266;22770;-92
2024/01/25 07:59:48;;;;;;;11.20;2.90;;;;;;;4.89;100.00;98855.14;270183;1266;22595;-91
2024/01/25 08:05:54;;;;;;;10.10;2.60;;;;;;;4.90;100.00;98866.71;270531;1266;22580;-92
2024/01/25 08:11:56;;;;;;;12.00;3.50;;;;;;;4.89;100.00;98893.73;271242;1266;23392;-91
2024/01/25 08:17:58;;;;;;;11.10;2.90;;;;;;;4.82;100.00;98908.64;271018;1267;22507;-90
2024/01/25 08:23:59;;;;;;;10.80;3.20;;;;;;;4.68;100.00;98907.58;274103;1266;22358;-91
2024/01/25 08:30:06;;;;;;;12.70;3.40;;;;;;;4.55;100.00;98905.05;271123;1266;22699;-90
2024/01/25 08:36:08;;;;;;;19.70;4.40;;;;;;;4.46;100.00;98895.70;271039;1266;22396;-90
2024/01/25 08:42:10;;;;;;;17.40;4.60;;;;;;;4.43;100.00;98893.86;272957;1266;22586;-90
2024/01/25 08:48:13;;;;;;;21.90;5.20;;;;;;;4.41;100.00;98894.19;272116;1266;22565;-90
2024/01/25 08:54:15;;;;;;;15.10;4.30;;;;;;;4.40;100.00;98901.44;270283;1267;22546;-90
2024/01/25 09:00:19;;;;;;;16.00;4.80;;;;;;;4.39;100.00;98902.27;270246;1263;23331;-91
2024/01/25 09:06:22;;;;;;;14.40;4.50;;;;;;;4.41;100.00;98898.28;272761;1266;24357;-90
2024/01/25 09:12:25;;;;;;;18.40;5.50;;;;;;;4.47;100.00;98895.51;273424;1266;22701;-92
2024/01/25 09:18:27;;;;;;;17.50;5.20;;;;;;;4.56;100.00;98893.64;273188;1265;22302;-90
2024/01/25 09:24:30;;;;;;;19.20;5.50;;;;;;;4.62;100.00;98883.13;273902;1266;22374;-92
2024/01/25 09:30:32;;;;;;;22.00;4.70;;;;;;;4.64;100.00;98880.48;273828;1266;22223;-89
2024/01/25 09:36:34;;;;;;;15.90;4.90;;;;;;;4.65;100.00;98889.05;273792;1260;22508;-90
2024/01/25 09:42:36;;;;;;;21.70;6.00;;;;;;;4.66;100.00;98893.02;272672;1266;23968;-89
2024/01/25 09:48:40;;;;;;;19.10;4.60;;;;;;;4.68;100.00;98893.92;273429;1266;23160;-90
2024/01/25 09:54:42;;;;;;;17.70;4.00;;;;;;;4.70;100.00;98891.59;274081;1266;22178;-90
2024/01/25 10:00:44;;;;;;;15.60;4.10;;;;;;;4.76;100.00;98895.33;273924;1266;22391;-90
2024/01/25 10:06:46;;;;;;;20.00;4.00;;;;;;;4.80;100.00;98904.77;274030;1263;23076;-92
2024/01/25 10:12:48;;;;;;;21.30;3.80;;;;;;;4.90;100.00;98913.00;273323;1267;23130;-92
2024/01/25 10:18:51;;;;;;;17.10;3.60;;;;;;;4.99;100.00;98903.59;273631;1266;23447;-90
2024/01/25 10:24:54;;;;;;;23.20;3.80;;;;;;;5.01;100.00;98899.85;273993;1266;22284;-91
2024/01/25 10:31:03;;;;;;;20.20;5.20;;;;;;;5.01;100.00;98907.15;273708;1266;22559;-91
2024/01/25 10:37:07;;;;;;;19.10;4.60;;;;;;;5.03;100.00;98912.17;273170;1266;22593;-89
2024/01/25 10:43:09;;;;;;;16.60;3.70;;;;;;;5.01;100.00;98913.96;273947;1263;22962;-90
2024/01/25 10:49:16;;;;;;;18.70;5.10;;;;;;;4.99;100.00;98912.88;274100;1266;22391;-91
2024/01/25 10:55:21;;;;;;;20.50;4.40;;;;;;;5.01;100.00;98909.84;273930;1256;22285;-91
2024/01/25 11:01:23;;;;;;;15.80;3.60;;;;;;;5.01;100.00;98910.92;273800;1266;23559;-89
2024/01/25 11:07:25;;;;;;;18.50;4.30;;;;;;;5.03;100.00;98917.83;273639;1266;22221;-90
2024/01/25 11:13:29;;;;;;;13.20;3.80;;;;;;;5.05;100.00;98924.48;273677;1254;22203;-90
2024/01/25 11:19:33;;;;;;;13.10;3.80;;;;;;;5.06;100.00;98924.05;274066;1266;22646;-90
2024/01/25 11:25:37;;;;;;;18.40;3.60;;;;;;;5.14;100.00;98926.92;272919;1266;22574;-92
2024/01/25 11:31:39;;;;;;;18.10;4.60;;;;;;;5.25;100.00;98925.13;271472;1266;23355;-89
2024/01/25 11:37:46;;;;;;;13.70;3.70;;;;;;;5.34;100.00;98913.53;273758;1266;22326;-89
2024/01/25 11:43:57;;;;;;;20.80;4.10;;;;;;;5.38;100.00;98914.81;273378;1267;22318;-90
2024/01/25 11:50:07;;;;;;;16.30;4.30;;;;;;;5.51;100.00;98926.59;273294;1266;22516;-92
2024/01/25 11:56:21;;;;;;;17.40;2.90;;;;;;;5.66;100.00;98933.16;273674;1266;22663;-91
2024/01/25 12:02:31;;;;;;;16.30;3.60;;;;;;;5.79;99.96;98940.55;273083;1266;22485;-95
2024/01/25 12:08:33;;;;;;;12.20;2.90;;;;;;;5.86;99.92;98957.23;274028;1259;23184;-89
2024/01/25 12:14:35;;;;;;;13.20;3.50;;;;;;;5.86;99.90;98966.92;274290;1269;22205;-90
2024/01/25 12:20:40;;;;;;;11.40;2.60;;;;;;;5.86;98.97;98973.76;273065;1266;22558;-91
2024/01/25 12:26:54;;;;;;;12.90;2.60;;;;;;;5.87;98.61;98983.34;273852;1267;23302;-92
2024/01/25 12:33:04;;;;;;;12.30;2.60;;;;;;;5.84;98.85;98984.48;273605;1266;24250;-91
2024/01/25 12:39:11;;;;;;;13.60;3.10;;;;;;;5.78;98.54;98989.88;274077;1266;22370;-91
2024/01/25 12:45:16;;;;;;;16.50;2.90;;;;;;;5.75;98.53;98992.10;272219;1257;22465;-90
2024/01/25 12:51:21;;;;;;;20.90;3.20;;;;;;;5.75;98.27;98985.89;273436;1266;22259;-90
2024/01/25 12:57:25;;;;;;;12.00;3.30;;;;;;;5.75;98.74;98988.77;273972;1269;23085;-91
2024/01/25 13:03:29;;;;;;;11.80;2.90;;;;;;;5.77;98.60;98991.79;273481;1266;22504;-90
2024/01/25 13:09:33;;;;;;;9.30;2.80;;;;;;;5.80;98.10;98990.56;272991;1266;23266;-90
2024/01/25 13:15:36;;;;;;;11.30;3.30;;;;;;;5.81;97.97;98997.27;272746;1269;22587;-90
2024/01/25 13:21:43;;;;;;;13.90;3.30;;;;;;;5.78;98.06;99002.45;274078;1269;23140;-91
2024/01/25 13:27:51;;;;;;;11.30;4.10;;;;;;;5.75;97.96;99007.40;273276;1267;22532;-90
2024/01/25 13:34:06;;;;;;;10.10;2.80;;;;;;;5.74;97.49;99017.39;273661;1269;22542;-92
2024/01/25 13:40:14;;;;;;;12.90;3.20;;;;;;;5.72;97.63;99015.44;274004;1267;23213;-91
2024/01/25 13:46:19;;;;;;;17.60;3.90;;;;;;;5.70;97.44;99018.66;273185;1273;23553;-90
2024/01/25 13:59:44;;;;;;;11.60;2.90;;;;;;;5.66;97.74;99028.85;273459;1259;24295;-90
2024/01/25 14:06:00;;;;;;;14.00;3.10;;;;;;;5.64;97.62;99030.89;273581;1267;22586;-91
2024/01/25 14:12:02;;;;;;;15.90;3.50;;;;;;;5.63;97.69;99036.75;273990;1269;22211;-92
2024/01/25 14:18:06;;;;;;;13.10;3.40;;;;;;;5.61;97.72;99050.40;271444;1269;22554;-91
2024/01/25 14:24:13;;;;;;;12.80;2.90;;;;;;;5.58;97.30;99063.81;270196;1266;23480;-90
2024/01/25 14:30:16;;;;;;;;;;;;;;;5.59;97.00;99066.02;272164;1267;22583;-91
2024/01/25 14:36:19;;;;;;;14.10;3.70;;;;;;;5.56;97.13;99067.65;271795;1266;23246;-92
2024/01/25 14:42:22;;;;;;;13.30;3.50;;;;;;;5.52;97.14;99070.61;273225;1265;22433;-91
2024/01/25 14:49:08;;;;;;;16.00;3.10;;;;;;;5.51;97.23;99075.85;273809;1274;23203;-91
2024/01/25 14:55:34;;;;;;;13.10;3.50;;;;;;;5.51;97.12;99074.30;266546;1267;10001588;-90
2024/01/25 15:01:40;;;;;;;15.50;3.10;;;;;;;5.50;97.11;99082.35;273939;1272;22411;-91
2024/01/25 15:07:50;;;;;;;12.60;3.50;;;;;;;5.53;96.91;99087.17;273920;1269;22143;-90
2024/01/25 15:14:00;;;;;;;14.40;3.90;;;;;;;5.54;96.77;99089.46;272946;1267;23386;-90
2024/01/25 15:20:03;;;;;;;18.30;4.00;;;;;;;5.49;97.22;99097.83;273519;1269;22273;-91
2024/01/25 15:26:31;;;;;;;18.00;4.30;;;;;;;5.43;97.39;99104.02;274011;1269;22879;-92
2024/01/25 15:32:46;;;;;;;16.70;4.20;;;;;;;5.40;97.29;99108.71;274002;1266;22223;-93
2024/01/25 15:38:49;;;;;;;16.00;3.40;;;;;;;5.40;97.21;99109.80;273828;1267;23142;-92
2024/01/25 15:45:02;;;;;;;14.60;4.10;;;;;;;5.41;97.01;99117.80;273715;1272;22248;-91
2024/01/25 15:51:18;;;;;;;14.60;4.50;;;;;;;5.40;96.94;99128.94;272762;1266;22287;-92
2024/01/25 15:57:20;;;;;;;18.20;5.50;;;;;;;5.43;96.47;99141.13;271081;1267;22598;-90
2024/01/25 16:03:53;;;;;;;17.40;4.50;;;;;;;5.46;96.44;99143.70;271997;1270;23863;-91
2024/01/25 16:09:56;;;;;;;12.90;3.90;;;;;;;5.43;96.37;99144.41;271992;1267;22568;-89
2024/01/25 16:15:58;;;;;;;12.20;3.80;;;;;;;5.43;96.15;99153.33;272146;1266;22389;-92
2024/01/25 16:22:08;;;;;;;14.90;4.20;;;;;;;5.44;95.86;99161.80;271706;1266;22533;-89
2024/01/25 16:28:20;;;;;;;14.10;4.00;;;;;;;5.48;95.35;99168.23;271593;1267;22306;-89
2024/01/25 16:35:31;;;;;;;15.10;3.50;;;;;;;5.49;95.37;99175.70;274147;1266;23268;-90
2024/01/25 16:42:23;;;;;;;22.30;3.80;;;;;;;5.46;95.52;99192.98;270760;1270;23062;-91
2024/01/25 16:49:12;;;;;;;14.50;4.50;;;;;;;5.46;94.97;99211.45;273257;1273;23908;-91
2024/01/25 16:55:54;;;;;;;20.70;4.20;;;;;;;5.46;95.08;99224.86;272420;1272;22433;-92
2024/01/25 17:02:03;;;;;;;14.70;3.60;;;;;;;5.40;95.38;99231.73;273252;1272;22484;-92
2024/01/25 17:08:08;;;;;;;17.00;4.20;;;;;;;5.36;95.35;99231.42;265663;1267;10001597;-92
2024/01/25 17:14:21;;;;;;;15.60;3.80;;;;;;;5.33;95.48;99244.64;273901;1267;22875;-91
2024/01/25 17:21:14;;;;;;;17.60;4.70;;;;;;;5.29;95.67;99257.23;273984;1273;23177;-91
2024/01/25 17:27:55;;;;;;;;;;;;;;;;;;;;;
2024/01/25 17:34:06;;;;;;;12.80;4.00;;;;;;;5.15;97.53;99269.34;273260;1266;151573;-90
2024/01/25 17:41:00;;;;;;;13.90;4.20;;;;;;;4.99;98.49;99273.23;273363;1266;23361;-92
2024/01/25 17:48:31;;;;;;;21.50;5.60;;;;;;;4.80;99.68;99285.83;273013;1276;22258;-91
2024/01/25 17:55:38;;;;;;;14.90;3.90;;;;;;;4.67;99.98;99289.79;271743;1266;22258;-92
2024/01/25 18:03:14;;;;;;;13.80;4.80;;;;;;;4.53;100.00;99298.98;271764;1281;22382;-93
2024/01/25 18:10:18;;;;;;;;;;;;;;;;;;;;;
2024/01/25 18:18:13;;;;;;;24.20;6.40;;;;;;;4.31;100.00;99310.89;274105;1273;22223;-90
2024/01/25 18:24:45;;;;;;;26.80;6.70;;;;;;;4.23;100.00;99325.65;274144;1272;22383;-89
2024/01/25 18:31:09;;;;;;;17.30;5.30;;;;;;;4.17;100.00;99328.73;274267;1273;22215;-91
2024/01/25 18:37:51;;;;;;;16.70;4.60;;;;;;;4.10;100.00;99328.70;274203;1270;22191;-90
2024/01/25 18:44:50;;;;;;;18.60;6.00;;;;;;;4.03;100.00;99329.85;274032;1274;22259;-91
2024/01/25 18:51:37;;;;;;;20.50;5.60;;;;;;;3.96;100.00;99334.65;274076;1274;22408;-90
2024/01/25 18:59:02;;;;;;;22.30;7.60;;;;;;;3.89;100.00;99327.47;273976;1274;22180;-93
2024/01/25 19:06:34;;;;;;;24.60;6.90;;;;;;;3.82;100.00;99322.77;274044;1273;23611;-89
2024/01/25 19:12:58;;;;;;;33.80;10.40;;;;;;;3.79;100.00;99324.05;273995;1274;22347;-89
2024/01/25 19:27:43;;;;;;;;;;;;;;;;;;;;;
2024/01/25 19:34:24;;;;;;;33.30;10.20;;;;;;;3.75;100.00;99330.59;272789;1274;23181;-89
2024/01/25 19:40:45;;;;;;;32.10;9.90;;;;;;;3.75;100.00;99332.63;273920;1275;22202;-91
2024/01/25 19:46:47;;;;;;;25.00;8.10;;;;;;;3.76;100.00;99336.18;274036;1274;22322;-92
2024/01/25 19:52:55;;;;;;;21.80;7.40;;;;;;;3.75;100.00;99333.55;273959;1270;22246;-91
2024/01/25 19:59:33;;;;;;;22.00;6.90;;;;;;;3.79;100.00;99332.67;273996;1274;22375;-89
2024/01/25 20:06:00;;;;;;;27.30;6.80;;;;;;;3.84;100.00;99339.94;273884;1275;22410;-90
2024/01/25 20:12:22;;;;;;;26.00;6.60;;;;;;;3.87;100.00;99345.50;273410;1274;23384;-92
2024/01/25 20:19:17;;;;;;;30.00;7.60;;;;;;;3.87;100.00;99346.20;273128;1271;22224;-91
2024/01/25 20:25:57;;;;;;;20.30;6.70;;;;;;;3.87;100.00;99355.09;272199;1267;23414;-91
2024/01/25 20:32:52;;;;;;;;;;;;;;;;;;;;;
2024/01/25 20:39:52;;;;;;;31.50;7.70;;;;;;;3.80;100.00;99358.26;273144;1267;22645;-91
2024/01/25 20:46:55;;;;;;;20.70;7.30;;;;;;;3.77;100.00;99356.29;272751;1266;22619;-89
2024/01/25 20:53:17;;;;;;;28.70;7.80;;;;;;;3.77;100.00;99358.75;271960;1267;22568;-91
2024/01/25 20:59:54;;;;;;;25.50;6.90;;;;;;;3.75;100.00;99363.56;274057;1273;22241;-91
2024/01/25 21:06:35;;;;;;;23.40;7.10;;;;;;;3.75;100.00;99367.80;274223;1270;22198;-90
2024/01/25 21:12:57;;;;;;;36.90;7.30;;;;;;;3.73;100.00;99369.20;274082;1275;23029;-89
2024/01/25 21:20:11;;;;;;;24.60;8.10;;;;;;;3.72;100.00;99366.20;274151;1267;22193;-89
2024/01/25 21:27:44;;;;;;;25.20;6.50;;;;;;;3.72;100.00;99363.55;274262;1267;22210;-91
2024/01/25 21:34:08;;;;;;;26.80;7.00;;;;;;;3.72;100.00;99370.80;273839;1273;24370;-90
2024/01/25 21:40:14;;;;;;;16.70;5.90;;;;;;;3.71;100.00;99373.02;274149;1273;22200;-91
2024/01/25 21:46:53;;;;;;;17.70;6.70;;;;;;;3.67;100.00;99376.81;274144;1273;22375;-91
2024/01/25 21:53:40;;;;;;;19.60;5.90;;;;;;;3.65;100.00;99383.54;274120;1274;22195;-89
2024/01/25 22:00:27;;;;;;;17.20;5.30;;;;;;;3.63;100.00;99392.65;274194;1274;23396;-91
2024/01/25 22:06:52;;;;;;;17.90;5.30;;;;;;;3.61;100.00;99406.39;274187;1274;22231;-89
2024/01/25 22:13:01;;;;;;;17.10;4.20;;;;;;;3.62;100.00;99423.36;273880;1269;22216;-90
2024/01/25 22:19:55;;;;;;;21.10;4.70;;;;;;;3.62;100.00;99444.03;274108;1273;22387;-88
2024/01/25 22:27:52;;;;;;;15.70;4.90;;;;;;;3.54;100.00;99456.18;274106;1256;22211;-89
2024/01/25 22:34:15;;;;;;;10.40;4.00;;;;;;;3.49;100.00;99455.86;274161;1270;22240;-91
2024/01/25 22:40:21;;;;;;;13.70;4.00;;;;;;;3.47;100.00;99465.38;274151;1274;22192;-89
2024/01/25 22:47:07;;;;;;;7.70;3.10;;;;;;;3.47;100.00;99466.36;274034;1275;22338;-89
2024/01/25 22:54:13;;;;;;;12.30;4.40;;;;;;;3.47;100.00;99473.11;273791;1267;22268;-90
2024/01/25 23:01:05;;;;;;;13.90;4.00;;;;;;;3.47;100.00;99479.55;274010;1274;22896;-89
2024/01/25 23:08:54;;;;;;;16.30;4.80;;;;;;;3.44;100.00;99486.20;272638;1263;22340;-91
2024/01/25 23:15:37;;;;;;;11.50;4.40;;;;;;;3.43;100.00;99492.41;272373;1276;22246;-89
2024/01/25 23:22:06;;;;;;;16.50;5.30;;;;;;;3.43;100.00;99491.42;273368;1270;23025;-89
2024/01/25 23:28:48;;;;;;;15.50;4.50;;;;;;;3.44;100.00;99501.29;272841;1273;22207;-89
2024/01/25 23:35:31;;;;;;;14.30;4.80;;;;;;;3.44;100.00;99500.21;273561;1276;22254;-90
2024/01/25 23:42:15;;;;;;;17.10;4.90;;;;;;;3.45;100.00;99497.88;273356;1272;22732;-90
2024/01/25 23:49:38;;;;;;;19.10;5.60;;;;;;;3.43;100.00;99517.14;274157;1273;22281;-90
2024/01/25 23:56:29;;;;;;;19.10;6.50;;;;;;;3.42;100.00;99534.02;274320;1273;22360;-90
